Time;durP1;ratioP1;P1;durP2;ratioP2;P2;SDS_P1;SDS_P2;PMS_P1;PMS_P2;Temp;Humidity;BMP_temperature;BMP_pressure;BME280_temperature;BME280_humidity;BME280_pressure;Samples;Min_cycle;Max_cycle;Signal;HPM_P1;HPM_P2
2022/01/03 00:00:45;;;;;;;46.50;4.55;;;12.00;99.90;;;;;;5023199;28;20097;-68
2022/01/03 00:03:13;;;;;;;36.53;3.80;;;12.10;99.90;;;;;;5026920;28;20021;-68
2022/01/03 00:05:39;;;;;;;44.17;4.70;;;12.10;99.90;;;;;;5024914;28;20029;-69
2022/01/03 00:08:06;;;;;;;42.28;4.60;;;12.10;99.90;;;;;;5024089;28;20025;-68
2022/01/03 00:10:33;;;;;;;39.03;4.35;;;12.10;99.90;;;;;;5028078;28;20562;-68
2022/01/03 00:13:00;;;;;;;39.03;4.10;;;12.10;99.90;;;;;;5024701;28;20029;-68
2022/01/03 00:15:26;;;;;;;45.15;4.65;;;12.00;99.90;;;;;;5025586;28;20029;-67
2022/01/03 00:17:53;;;;;;;37.22;3.70;;;12.00;99.90;;;;;;5024360;28;20412;-68
2022/01/03 00:20:20;;;;;;;40.15;4.18;;;12.00;99.90;;;;;;5024938;28;20087;-68
2022/01/03 00:22:56;;;;;;;42.30;4.70;;;12.00;99.90;;;;;;5027981;28;20036;-67
2022/01/03 00:25:24;;;;;;;41.30;4.18;;;12.00;99.90;;;;;;5028228;28;20032;-68
2022/01/03 00:28:15;;;;;;;39.47;4.32;;;12.00;99.90;;;;;;5024325;28;20607;-68
2022/01/03 00:30:42;;;;;;;35.38;3.75;;;11.90;99.90;;;;;;5025843;28;20029;-69
2022/01/03 00:33:08;;;;;;;39.92;4.68;;;11.90;99.90;;;;;;5024881;28;20083;-69
2022/01/03 00:35:39;;;;;;;36.47;3.88;;;12.00;99.90;;;;;;5026197;28;20108;-68
2022/01/03 00:38:09;;;;;;;37.92;4.47;;;11.90;99.90;;;;;;5025545;28;20038;-69
2022/01/03 00:40:35;;;;;;;31.98;4.30;;;11.90;99.90;;;;;;5028217;28;20030;-69
2022/01/03 00:43:03;;;;;;;32.13;4.07;;;11.90;99.90;;;;;;5024955;28;20033;-68
2022/01/03 00:45:28;;;;;;;40.10;4.75;;;11.90;99.90;;;;;;5026095;28;20033;-68
2022/01/03 00:47:56;;;;;;;35.95;4.30;;;12.00;99.90;;;;;;5024546;28;20040;-69
2022/01/03 00:50:23;;;;;;;49.42;4.30;;;11.90;99.90;;;;;;5024506;28;20026;-68
2022/01/03 00:52:49;;;;;;;40.33;4.03;;;11.90;99.90;;;;;;5026789;28;20030;-68
2022/01/03 00:55:15;;;;;;;43.05;3.90;;;12.00;99.90;;;;;;5026177;28;20029;-69
2022/01/03 00:57:57;;;;;;;33.10;3.50;;;12.00;99.90;;;;;;5025217;28;20065;-69
2022/01/03 01:00:22;;;;;;;45.38;4.60;;;12.00;99.90;;;;;;5025894;28;20099;-69
2022/01/03 01:03:04;;;;;;;39.53;4.80;;;12.00;99.90;;;;;;5023971;28;20401;-68
2022/01/03 01:05:31;;;;;;;42.60;4.18;;;11.90;99.90;;;;;;5023976;28;20038;-68
2022/01/03 01:07:57;;;;;;;40.72;4.30;;;11.90;99.90;;;;;;5026527;28;20134;-68
2022/01/03 01:10:32;;;;;;;48.45;4.05;;;12.00;99.90;;;;;;5030286;28;20030;-68
2022/01/03 01:12:58;;;;;;;39.40;4.32;;;11.90;99.90;;;;;;5027434;28;20137;-68
2022/01/03 01:15:28;;;;;;;40.40;4.05;;;12.00;99.90;;;;;;5029727;28;20029;-68
2022/01/03 01:17:56;;;;;;;36.10;3.60;;;12.00;99.90;;;;;;5028134;28;20064;-68
2022/01/03 01:20:23;;;;;;;42.05;3.83;;;11.90;99.90;;;;;;5028714;28;20022;-68
2022/01/03 01:22:49;;;;;;;39.08;4.03;;;11.90;99.90;;;;;;5030211;28;20110;-68
2022/01/03 01:30:13;;;;;;;39.15;4.00;;;11.90;99.90;;;;;;5019769;28;20036;-68
2022/01/03 01:32:44;;;;;;;36.08;4.10;;;11.90;99.90;;;;;;5027802;28;20105;-68
2022/01/03 01:35:10;;;;;;;42.80;4.25;;;11.90;99.90;;;;;;5028335;28;20148;-68
2022/01/03 01:37:38;;;;;;;49.17;5.35;;;11.90;99.90;;;;;;5029473;28;20037;-68
2022/01/03 01:40:04;;;;;;;37.83;4.20;;;11.90;99.90;;;;;;5026568;28;20117;-68
2022/01/03 01:42:31;;;;;;;35.28;3.67;;;11.90;99.90;;;;;;5027212;28;20025;-68
2022/01/03 01:45:00;;;;;;;45.50;4.60;;;11.90;99.90;;;;;;5028873;28;20102;-68
2022/01/03 01:47:27;;;;;;;43.45;4.43;;;11.90;99.90;;;;;;5028723;28;20034;-68
2022/01/03 01:49:55;;;;;;;36.58;4.20;;;11.90;99.90;;;;;;5028977;28;20025;-68
2022/01/03 01:52:25;;;;;;;38.85;4.82;;;11.90;99.90;;;;;;5030777;28;20025;-69
2022/01/03 01:55:04;;;;;;;40.35;4.88;;;11.90;99.90;;;;;;5028437;28;20025;-68
2022/01/03 01:57:59;;;;;;;37.97;4.15;;;11.90;99.90;;;;;;5025746;28;20092;-68
2022/01/03 02:00:26;;;;;;;35.80;3.17;;;11.90;99.90;;;;;;5022250;28;20021;-68
2022/01/03 02:03:18;;;;;;;38.83;4.25;;;11.80;99.90;;;;;;5026887;28;20162;-68
2022/01/03 02:05:52;;;;;;;42.35;3.78;;;11.90;99.90;;;;;;5007164;28;20116;-68
2022/01/03 02:08:33;;;;;;;37.90;4.25;;;11.90;99.90;;;;;;5004860;28;20292;-68
2022/01/03 02:11:07;;;;;;;36.30;3.88;;;11.90;99.90;;;;;;5006642;28;20117;-68
2022/01/03 02:13:36;;;;;;;38.67;4.13;;;11.80;99.90;;;;;;5007864;28;20065;-68
2022/01/03 02:16:04;;;;;;;40.00;3.50;;;11.80;99.90;;;;;;5007671;28;20030;-68
2022/01/03 02:18:31;;;;;;;37.65;4.13;;;11.80;99.90;;;;;;5006839;28;20041;-68
2022/01/03 02:20:57;;;;;;;35.17;3.33;;;11.80;99.90;;;;;;5006175;28;20040;-69
2022/01/03 02:23:23;;;;;;;39.20;3.70;;;11.80;99.90;;;;;;5007293;28;20042;-68
2022/01/03 02:25:49;;;;;;;45.90;4.93;;;11.90;99.90;;;;;;4990912;28;20032;-68
2022/01/03 02:28:20;;;;;;;37.83;4.28;;;11.90;99.90;;;;;;5006531;28;20036;-68
2022/01/03 02:30:47;;;;;;;33.50;3.95;;;11.80;99.90;;;;;;5006821;28;20390;-68
2022/01/03 02:33:13;;;;;;;42.38;4.07;;;11.90;99.90;;;;;;5006681;28;20022;-68
2022/01/03 02:35:43;;;;;;;38.45;4.05;;;11.90;99.90;;;;;;5006134;28;20060;-68
2022/01/03 02:38:09;;;;;;;42.38;4.15;;;11.90;99.90;;;;;;5006462;28;20044;-68
2022/01/03 02:40:36;;;;;;;42.30;4.45;;;11.90;99.90;;;;;;5007522;28;20030;-68
2022/01/03 02:43:02;;;;;;;43.60;3.72;;;11.90;99.90;;;;;;5020322;28;20621;-69
2022/01/03 02:45:28;;;;;;;34.83;4.20;;;11.90;99.90;;;;;;5027734;28;20374;-68
2022/01/03 02:47:56;;;;;;;35.83;4.35;;;11.90;99.90;;;;;;5025434;28;20069;-69
2022/01/03 02:50:24;;;;;;;44.80;4.03;;;11.90;99.90;;;;;;5027722;28;20033;-68
2022/01/03 02:52:51;;;;;;;37.63;4.13;;;11.90;99.90;;;;;;5027710;28;20025;-68
2022/01/03 02:55:17;;;;;;;35.40;4.35;;;11.90;99.90;;;;;;5028915;28;20048;-68
2022/01/03 02:57:45;;;;;;;44.90;3.88;;;11.90;99.90;;;;;;5025876;28;20036;-68
2022/01/03 03:00:25;;;;;;;38.70;3.58;;;11.90;99.90;;;;;;5024918;28;20076;-68
2022/01/03 03:02:55;;;;;;;35.42;3.38;;;11.90;99.90;;;;;;5025232;28;20245;-68
2022/01/03 03:05:25;;;;;;;31.13;3.03;;;11.90;99.90;;;;;;5011426;28;20129;-68
2022/01/03 03:07:54;;;;;;;39.05;4.05;;;11.90;99.90;;;;;;5034250;28;20120;-69
2022/01/03 03:10:26;;;;;;;45.22;4.05;;;11.90;99.90;;;;;;5029107;28;20111;-68
2022/01/03 03:12:56;;;;;;;44.90;3.80;;;11.90;99.90;;;;;;5029609;28;20481;-68
2022/01/03 03:15:26;;;;;;;38.47;4.40;;;11.90;99.90;;;;;;5028197;28;20025;-69
2022/01/03 03:18:01;;;;;;;45.22;3.33;;;11.90;99.90;;;;;;5025134;28;20040;-68
2022/01/03 03:20:35;;;;;;;35.78;3.42;;;11.80;99.90;;;;;;5025792;28;20026;-68
2022/01/03 03:23:04;;;;;;;36.15;3.70;;;11.80;99.90;;;;;;5027143;28;20025;-68
2022/01/03 03:25:37;;;;;;;36.63;3.95;;;11.80;99.90;;;;;;5028390;28;20057;-68
2022/01/03 03:28:10;;;;;;;46.00;4.10;;;11.90;99.90;;;;;;5025344;28;20420;-69
2022/01/03 03:30:41;;;;;;;33.55;3.53;;;11.90;99.90;;;;;;5025450;28;20061;-68
2022/01/03 03:33:14;;;;;;;34.13;3.40;;;11.80;99.90;;;;;;5024314;28;20026;-68
2022/01/03 03:35:42;;;;;;;34.13;3.53;;;11.90;99.90;;;;;;5025497;28;20135;-68
2022/01/03 03:38:08;;;;;;;29.75;3.13;;;11.80;99.90;;;;;;5026358;28;20112;-68
2022/01/03 03:40:35;;;;;;;45.15;4.57;;;11.80;99.90;;;;;;5029282;28;20148;-68
2022/01/03 03:43:01;;;;;;;37.63;3.75;;;11.80;99.90;;;;;;5024638;28;20033;-68
2022/01/03 03:45:27;;;;;;;35.33;4.40;;;11.80;99.90;;;;;;5025541;28;20031;-68
2022/01/03 03:47:53;;;;;;;40.30;3.88;;;11.90;99.90;;;;;;5025188;28;20492;-68
2022/01/03 03:50:20;;;;;;;29.35;3.33;;;11.90;99.90;;;;;;5025473;28;20512;-68
2022/01/03 03:52:46;;;;;;;30.42;3.97;;;11.90;99.90;;;;;;5028447;28;20029;-68
2022/01/03 03:55:12;;;;;;;32.45;3.50;;;11.90;99.90;;;;;;5024939;28;20025;-69
2022/01/03 03:57:39;;;;;;;48.72;4.45;;;11.90;99.90;;;;;;5026235;28;20033;-68
2022/01/03 04:00:08;;;;;;;30.25;4.03;;;11.90;99.90;;;;;;5025225;28;20022;-68
2022/01/03 04:02:33;;;;;;;33.97;3.90;;;11.90;99.90;;;;;;5024635;28;20533;-68
2022/01/03 04:05:00;;;;;;;38.80;4.30;;;11.90;99.90;;;;;;5026774;28;20075;-68
2022/01/03 04:07:25;;;;;;;36.83;3.50;;;11.90;99.90;;;;;;5027011;28;20021;-68
2022/01/03 04:09:51;;;;;;;38.50;4.15;;;11.90;99.90;;;;;;5025904;28;20045;-68
2022/01/03 04:12:17;;;;;;;37.20;4.00;;;11.90;99.90;;;;;;5026485;28;20155;-68
2022/01/03 04:14:43;;;;;;;32.40;3.55;;;11.90;99.90;;;;;;5026117;28;20022;-68
2022/01/03 04:17:09;;;;;;;37.58;3.92;;;11.90;99.90;;;;;;5026549;28;20034;-68
2022/01/03 04:19:35;;;;;;;33.95;4.57;;;11.90;99.90;;;;;;5028174;28;20057;-68
2022/01/03 04:22:01;;;;;;;38.25;3.53;;;11.90;99.90;;;;;;5024186;28;20033;-68
2022/01/03 04:24:26;;;;;;;30.23;3.13;;;11.90;99.90;;;;;;5025957;28;20048;-68
2022/01/03 04:26:52;;;;;;;43.78;4.38;;;11.90;99.90;;;;;;5026086;28;20046;-67
2022/01/03 04:29:18;;;;;;;36.50;3.83;;;11.90;99.90;;;;;;5026385;28;20030;-68
2022/01/03 04:31:44;;;;;;;41.90;4.25;;;11.90;99.90;;;;;;5028517;28;20142;-68
2022/01/03 04:34:10;;;;;;;45.05;4.07;;;11.90;99.90;;;;;;5026360;28;20440;-67
2022/01/03 04:36:36;;;;;;;37.97;3.22;;;11.90;99.90;;;;;;5024559;28;20034;-67
2022/01/03 04:39:02;;;;;;;34.22;4.22;;;11.90;99.90;;;;;;5024657;28;20033;-68
2022/01/03 04:41:28;;;;;;;32.85;3.53;;;11.90;99.90;;;;;;5024574;28;20025;-67
2022/01/03 04:43:54;;;;;;;39.05;3.95;;;11.90;99.90;;;;;;5028453;28;20432;-69
2022/01/03 04:46:19;;;;;;;40.45;3.97;;;11.90;99.90;;;;;;5029947;28;20036;-68
2022/01/03 04:48:45;;;;;;;36.40;3.70;;;11.90;99.90;;;;;;5028808;28;20053;-67
2022/01/03 04:51:11;;;;;;;35.00;3.00;;;11.90;99.90;;;;;;5027919;28;20561;-68
2022/01/03 04:53:39;;;;;;;31.67;4.20;;;11.90;99.90;;;;;;5030252;28;20036;-67
2022/01/03 04:56:10;;;;;;;37.20;4.32;;;11.90;99.90;;;;;;5029916;28;20034;-67
2022/01/03 04:58:37;;;;;;;29.48;3.15;;;11.90;99.90;;;;;;5031227;28;20687;-67
2022/01/03 05:01:03;;;;;;;35.22;3.38;;;11.90;99.90;;;;;;5029877;28;20421;-68
2022/01/03 05:03:29;;;;;;;38.60;3.65;;;11.90;99.90;;;;;;5029562;28;20032;-67
2022/01/03 05:05:54;;;;;;;41.38;3.83;;;11.90;99.90;;;;;;5029537;28;20029;-67
2022/01/03 05:08:20;;;;;;;38.55;3.90;;;11.90;99.90;;;;;;5028029;28;20022;-67
2022/01/03 05:10:46;;;;;;;44.03;4.05;;;11.90;99.90;;;;;;5031360;28;20038;-67
2022/01/03 05:13:11;;;;;;;39.85;4.05;;;11.90;99.90;;;;;;5028111;28;20021;-67
2022/01/03 05:15:37;;;;;;;39.95;4.05;;;11.90;99.90;;;;;;5027064;28;20104;-68
2022/01/03 05:18:03;;;;;;;30.23;3.42;;;11.90;99.90;;;;;;5030579;28;20133;-68
2022/01/03 05:20:29;;;;;;;29.08;3.00;;;11.90;99.90;;;;;;5027219;28;20367;-68
2022/01/03 05:22:55;;;;;;;40.08;3.50;;;11.90;99.90;;;;;;5028799;28;20037;-68
2022/01/03 05:25:20;;;;;;;37.58;4.60;;;11.90;99.90;;;;;;5029883;28;20517;-68
2022/01/03 05:27:47;;;;;;;42.03;4.10;;;11.90;99.90;;;;;;5026980;28;20124;-68
2022/01/03 05:30:14;;;;;;;36.28;3.45;;;11.90;99.90;;;;;;5027641;28;20070;-67
2022/01/03 05:32:39;;;;;;;33.97;3.30;;;11.90;99.90;;;;;;5028358;28;20516;-68
2022/01/03 05:35:06;;;;;;;35.03;3.67;;;11.90;99.90;;;;;;5028991;28;20034;-68
2022/01/03 05:37:32;;;;;;;33.03;3.05;;;11.90;99.90;;;;;;5030531;28;20060;-68
2022/01/03 05:39:58;;;;;;;37.58;4.07;;;11.90;99.90;;;;;;5027435;28;20060;-68
2022/01/03 05:42:23;;;;;;;34.65;3.25;;;11.90;99.90;;;;;;5026736;28;20068;-68
2022/01/03 05:44:49;;;;;;;31.10;2.85;;;11.90;99.90;;;;;;5026668;28;20159;-67
2022/01/03 05:47:15;;;;;;;32.22;3.63;;;11.90;99.90;;;;;;5028652;28;20029;-68
2022/01/03 05:49:41;;;;;;;35.65;3.88;;;11.90;99.90;;;;;;5027535;28;20381;-68
2022/01/03 05:52:06;;;;;;;42.75;3.47;;;11.90;99.90;;;;;;5027638;28;20092;-67
2022/01/03 05:54:32;;;;;;;35.60;3.42;;;11.90;99.90;;;;;;5028137;28;20029;-64
2022/01/03 05:56:58;;;;;;;45.38;3.88;;;11.90;99.90;;;;;;5029272;28;20045;-67
2022/01/03 05:59:23;;;;;;;33.85;3.03;;;11.90;99.90;;;;;;5027581;28;20029;-68
2022/01/03 06:01:50;;;;;;;35.25;3.63;;;11.90;99.90;;;;;;5029387;28;20190;-68
2022/01/03 06:04:22;;;;;;;31.88;3.67;;;11.90;99.90;;;;;;5038162;28;20104;-68
2022/01/03 06:07:05;;;;;;;35.70;3.63;;;11.90;99.90;;;;;;5022782;28;20030;-66
2022/01/03 06:09:31;;;;;;;32.10;3.42;;;11.90;99.90;;;;;;5027540;28;20034;-65
2022/01/03 06:11:58;;;;;;;35.00;3.47;;;11.90;99.90;;;;;;5026794;28;20034;-65
2022/01/03 06:14:25;;;;;;;49.67;4.07;;;11.90;99.90;;;;;;5032491;28;20022;-65
2022/01/03 06:16:51;;;;;;;30.75;2.80;;;11.90;99.90;;;;;;5029391;28;20497;-64
2022/01/03 06:19:18;;;;;;;41.33;5.13;;;11.90;99.90;;;;;;5030680;28;20112;-64
2022/01/03 06:21:44;;;;;;;36.03;3.28;;;11.90;99.90;;;;;;5025378;28;20116;-64
2022/01/03 06:24:12;;;;;;;40.55;4.03;;;11.90;99.90;;;;;;5028590;28;20018;-65
2022/01/03 06:26:41;;;;;;;43.30;4.25;;;11.90;99.90;;;;;;5026741;28;20516;-66
2022/01/03 06:29:11;;;;;;;40.13;4.15;;;11.90;99.90;;;;;;5031142;28;20095;-66
2022/01/03 06:31:37;;;;;;;29.88;3.10;;;11.90;99.90;;;;;;5040620;28;20078;-66
2022/01/03 06:34:04;;;;;;;31.00;3.67;;;11.90;99.90;;;;;;5027132;28;20059;-66
2022/01/03 06:36:30;;;;;;;38.45;3.53;;;11.90;99.90;;;;;;5024090;28;20449;-67
2022/01/03 06:38:56;;;;;;;34.50;3.38;;;11.90;99.90;;;;;;5024872;28;20101;-66
2022/01/03 06:41:23;;;;;;;37.40;3.38;;;11.90;99.90;;;;;;5026149;28;20040;-66
2022/01/03 06:43:49;;;;;;;35.38;3.55;;;11.90;99.90;;;;;;5029233;28;20052;-66
2022/01/03 06:46:14;;;;;;;39.72;3.85;;;12.00;99.90;;;;;;5027307;28;20501;-66
2022/01/03 06:48:41;;;;;;;30.10;3.30;;;11.90;99.90;;;;;;5028629;28;20406;-66
2022/01/03 06:51:06;;;;;;;36.53;3.85;;;11.90;99.90;;;;;;5026037;28;20065;-66
2022/01/03 06:53:33;;;;;;;33.38;3.38;;;11.90;99.90;;;;;;5026146;28;20057;-66
2022/01/03 06:55:59;;;;;;;33.67;3.22;;;11.90;99.90;;;;;;5027935;28;20033;-66
2022/01/03 06:58:24;;;;;;;33.28;3.53;;;11.90;99.90;;;;;;5041315;28;20101;-66
2022/01/03 07:00:50;;;;;;;37.63;4.22;;;11.90;99.90;;;;;;5028298;28;20034;-65
2022/01/03 07:03:16;;;;;;;29.20;3.33;;;12.00;99.90;;;;;;5026626;28;20022;-65
2022/01/03 07:05:42;;;;;;;37.30;3.55;;;11.90;99.90;;;;;;5024937;28;20519;-65
2022/01/03 07:08:08;;;;;;;36.00;4.03;;;12.00;99.90;;;;;;5025770;28;20029;-65
2022/01/03 07:10:33;;;;;;;29.05;3.20;;;12.00;99.90;;;;;;5029040;28;20139;-65
2022/01/03 07:13:00;;;;;;;30.77;3.20;;;12.00;99.90;;;;;;5028138;28;20036;-66
2022/01/03 07:20:56;;;;;;;37.90;3.83;;;12.10;99.90;;;;;;5025669;28;20567;-65
2022/01/03 07:23:22;;;;;;;38.03;3.85;;;12.10;99.90;;;;;;5024970;28;20087;-66
2022/01/03 07:25:50;;;;;;;39.55;4.28;;;12.10;99.90;;;;;;5026850;28;20033;-66
2022/01/03 07:28:17;;;;;;;29.40;3.33;;;12.10;99.90;;;;;;5027822;28;20037;-66
2022/01/03 07:30:43;;;;;;;34.85;3.42;;;12.00;99.90;;;;;;5025971;28;20072;-66
2022/01/03 07:33:09;;;;;;;39.03;4.05;;;12.00;99.90;;;;;;5025095;28;20029;-66
2022/01/03 07:35:40;;;;;;;32.30;4.13;;;12.00;99.90;;;;;;5025905;28;20044;-66
2022/01/03 07:38:09;;;;;;;39.53;3.85;;;12.00;99.90;;;;;;5025115;28;20034;-66
2022/01/03 07:40:38;;;;;;;37.35;3.88;;;12.00;99.90;;;;;;5028452;28;20049;-66
2022/01/03 07:43:04;;;;;;;45.78;6.40;;;12.00;99.90;;;;;;5026936;28;20072;-66
2022/01/03 07:45:30;;;;;;;32.28;4.22;;;12.00;99.90;;;;;;5025273;28;20053;-66
2022/01/03 07:47:55;;;;;;;37.03;4.65;;;12.00;99.90;;;;;;5024614;28;20163;-66
2022/01/03 07:50:22;;;;;;;37.08;3.90;;;12.00;99.90;;;;;;5028596;28;20029;-66
2022/01/03 07:52:48;;;;;;;37.42;4.70;;;12.00;99.90;;;;;;5028141;28;20037;-66
2022/01/03 07:55:15;;;;;;;40.80;3.55;;;12.00;99.90;;;;;;5026413;28;20037;-66
2022/01/03 07:57:42;;;;;;;37.70;3.70;;;12.00;99.90;;;;;;5026550;28;20041;-66
2022/01/03 08:00:11;;;;;;;37.80;3.58;;;12.00;99.90;;;;;;5024551;28;20396;-65
2022/01/03 08:02:38;;;;;;;35.90;3.65;;;12.00;99.90;;;;;;5024567;28;20048;-67
2022/01/03 08:05:05;;;;;;;40.30;3.75;;;12.10;99.90;;;;;;5026440;28;20432;-66
2022/01/03 08:07:31;;;;;;;39.08;4.10;;;12.10;99.90;;;;;;5029415;28;20021;-68
2022/01/03 08:09:57;;;;;;;43.42;4.85;;;12.10;99.90;;;;;;5024242;28;20040;-65
2022/01/03 08:12:23;;;;;;;45.20;3.97;;;12.00;99.90;;;;;;5024363;28;20064;-66
2022/01/03 08:14:49;;;;;;;40.03;4.32;;;12.10;99.90;;;;;;5027238;28;20079;-66
2022/01/03 08:17:14;;;;;;;37.38;2.95;;;12.10;99.90;;;;;;5024227;28;20053;-65
2022/01/03 08:19:40;;;;;;;32.72;3.53;;;12.10;99.90;;;;;;5028149;28;20409;-65
2022/01/03 08:22:06;;;;;;;30.80;3.63;;;12.10;99.90;;;;;;5024529;28;20029;-67
2022/01/03 08:24:32;;;;;;;41.90;3.75;;;12.10;99.90;;;;;;5023899;28;20460;-66
2022/01/03 08:26:58;;;;;;;40.50;3.67;;;12.10;99.90;;;;;;5024126;28;20048;-66
2022/01/03 08:29:26;;;;;;;35.13;3.55;;;12.10;99.90;;;;;;5024315;28;20498;-67
2022/01/03 08:31:51;;;;;;;29.77;3.95;;;12.10;99.90;;;;;;5027058;28;20051;-67
2022/01/03 08:34:17;;;;;;;37.85;4.47;;;12.10;99.90;;;;;;5026370;28;20013;-67
2022/01/03 08:36:44;;;;;;;31.50;3.50;;;12.10;99.90;;;;;;5024194;28;20025;-67
2022/01/03 08:39:10;;;;;;;35.83;3.55;;;12.10;99.90;;;;;;5024501;28;20379;-67
2022/01/03 08:41:36;;;;;;;29.60;3.58;;;12.20;99.90;;;;;;5025781;28;20093;-67
2022/01/03 08:44:02;;;;;;;33.70;3.55;;;12.20;99.90;;;;;;5025546;28;20045;-66
2022/01/03 08:46:28;;;;;;;38.00;3.50;;;12.20;99.90;;;;;;5028383;28;20101;-66
2022/01/03 08:48:54;;;;;;;27.63;3.53;;;12.20;99.90;;;;;;5020660;28;20112;-65
2022/01/03 08:51:21;;;;;;;42.65;4.82;;;12.30;99.90;;;;;;5024205;28;20025;-65
2022/01/03 08:53:47;;;;;;;31.85;3.67;;;12.30;99.90;;;;;;5024784;28;20696;-66
2022/01/03 08:56:13;;;;;;;30.00;3.00;;;12.30;99.90;;;;;;5031417;28;20108;-66
2022/01/03 08:58:39;;;;;;;31.95;3.50;;;12.30;99.90;;;;;;5027840;28;20033;-66
2022/01/03 09:01:05;;;;;;;34.08;3.25;;;12.30;99.90;;;;;;5024489;28;20033;-66
2022/01/03 09:03:31;;;;;;;30.73;2.90;;;12.40;99.90;;;;;;5025210;28;20079;-66
2022/01/03 09:05:57;;;;;;;34.33;3.25;;;12.40;99.90;;;;;;5024151;28;20055;-67
2022/01/03 09:08:23;;;;;;;34.17;4.10;;;12.40;99.90;;;;;;5024133;28;20030;-67
2022/01/03 09:10:50;;;;;;;38.03;3.65;;;12.40;99.90;;;;;;5027204;28;20099;-66
2022/01/03 09:13:17;;;;;;;39.45;3.53;;;12.50;99.90;;;;;;5026864;28;20032;-67
2022/01/03 09:15:46;;;;;;;32.30;3.30;;;12.50;99.90;;;;;;5026351;28;20064;-66
2022/01/03 09:18:13;;;;;;;35.65;3.47;;;12.50;99.90;;;;;;5023973;28;20041;-66
2022/01/03 09:20:39;;;;;;;24.77;2.97;;;12.50;99.90;;;;;;5024347;28;20053;-66
2022/01/03 09:23:19;;;;;;;33.88;3.78;;;12.50;99.90;;;;;;5026100;28;20107;-66
2022/01/03 09:31:14;;;;;;;34.08;3.15;;;12.60;99.90;;;;;;5028615;28;20111;-66
2022/01/03 09:33:40;;;;;;;27.48;3.42;;;12.60;99.90;;;;;;5027641;28;20396;-65
2022/01/03 09:36:05;;;;;;;30.10;3.67;;;12.60;99.90;;;;;;5027245;28;20022;-65
2022/01/03 09:38:31;;;;;;;32.60;4.22;;;12.60;99.90;;;;;;5039922;28;20038;-68
2022/01/03 09:41:02;;;;;;;34.10;4.10;;;12.60;99.90;;;;;;5029551;28;20032;-67
2022/01/03 09:43:28;;;;;;;28.75;3.63;;;12.70;99.90;;;;;;5030213;28;20583;-67
2022/01/03 09:45:55;;;;;;;40.05;3.85;;;12.80;99.90;;;;;;5028482;28;20033;-66
2022/01/03 09:48:23;;;;;;;33.97;3.45;;;12.80;99.90;;;;;;5027244;28;20610;-65
2022/01/03 09:50:50;;;;;;;33.40;5.45;;;12.80;99.90;;;;;;5028725;28;20037;-65
2022/01/03 09:53:20;;;;;;;37.95;3.50;;;12.90;99.90;;;;;;5027727;28;20030;-67
2022/01/03 09:55:46;;;;;;;30.30;3.67;;;12.90;99.90;;;;;;5030694;28;20018;-67
2022/01/03 09:58:14;;;;;;;31.17;3.95;;;12.90;99.90;;;;;;5028230;28;20512;-67
2022/01/03 10:00:40;;;;;;;33.75;3.55;;;12.90;99.90;;;;;;5027149;28;20026;-67
2022/01/03 10:03:06;;;;;;;28.60;3.63;;;12.90;99.90;;;;;;5028919;28;20033;-67
2022/01/03 10:05:32;;;;;;;32.65;3.70;;;12.90;99.90;;;;;;5029451;28;20409;-67
2022/01/03 10:07:59;;;;;;;36.58;3.60;;;12.90;99.90;;;;;;5028975;28;20485;-67
2022/01/03 10:10:27;;;;;;;30.70;3.65;;;12.90;99.90;;;;;;5029045;28;20025;-67
2022/01/03 10:12:53;;;;;;;35.10;3.40;;;12.90;99.90;;;;;;5026760;28;20033;-67
2022/01/03 10:15:19;;;;;;;36.03;3.30;;;13.00;99.90;;;;;;5026696;28;20029;-66
2022/01/03 10:17:47;;;;;;;28.88;3.53;;;13.00;99.90;;;;;;5026465;28;20041;-67
2022/01/03 10:20:13;;;;;;;34.42;3.75;;;13.10;99.90;;;;;;5020263;28;20030;-66
2022/01/03 10:22:42;;;;;;;29.48;3.40;;;13.20;99.90;;;;;;5030043;28;20053;-67
2022/01/03 10:25:22;;;;;;;24.95;3.53;;;13.20;99.90;;;;;;5026878;28;20079;-67
2022/01/03 10:27:57;;;;;;;31.05;3.60;;;13.20;99.90;;;;;;5026979;28;20042;-66
2022/01/03 10:30:49;;;;;;;30.55;3.45;;;13.20;99.90;;;;;;5025753;28;20117;-66
2022/01/03 10:33:17;;;;;;;30.20;3.40;;;13.20;99.90;;;;;;5017943;28;20036;-67
2022/01/03 10:35:56;;;;;;;28.00;3.55;;;13.20;99.90;;;;;;5026706;28;20025;-67
2022/01/03 10:38:34;;;;;;;25.33;3.40;;;13.30;99.90;;;;;;5011804;28;20520;-67
2022/01/03 10:41:16;;;;;;;30.10;2.97;;;13.30;99.90;;;;;;5028550;28;20032;-67
2022/01/03 10:43:43;;;;;;;31.58;3.05;;;13.20;99.90;;;;;;5029200;28;20052;-66
2022/01/03 10:46:28;;;;;;;28.27;3.17;;;13.30;99.90;;;;;;5026182;28;20378;-66
2022/01/03 10:49:19;;;;;;;24.73;3.10;;;13.20;99.90;;;;;;5026301;28;20018;-66
2022/01/03 10:51:46;;;;;;;30.83;3.17;;;13.20;99.90;;;;;;5025733;28;20366;-66
2022/01/03 10:54:16;;;;;;;30.08;3.28;;;13.20;99.90;;;;;;5026102;28;20623;-66
2022/01/03 10:56:49;;;;;;;28.73;3.28;;;13.20;99.90;;;;;;5026841;28;20108;-66
2022/01/03 10:59:22;;;;;;;37.63;3.83;;;13.20;99.90;;;;;;5022632;28;20065;-66
2022/01/03 11:01:53;;;;;;;28.65;3.10;;;13.10;99.90;;;;;;5025005;28;20044;-66
2022/01/03 11:04:36;;;;;;;27.80;3.08;;;13.20;99.90;;;;;;5029381;28;20125;-66
2022/01/03 11:13:04;;;;;;;27.75;3.35;;;13.20;99.90;;;;;;5025709;28;20029;-66
2022/01/03 11:15:29;;;;;;;;;;;13.20;99.90;;;;;;5026412;28;20454;-66
2022/01/03 11:18:08;;;;;;;28.15;3.28;;;13.20;99.90;;;;;;5025595;28;19946;-66
2022/01/03 11:20:35;;;;;;;19.63;2.47;;;13.30;99.90;;;;;;5025483;28;20037;-66
2022/01/03 11:23:01;;;;;;;21.70;2.60;;;13.20;99.90;;;;;;5028892;28;20068;-66
2022/01/03 11:25:31;;;;;;;21.27;2.90;;;13.20;99.90;;;;;;5027875;28;20057;-66
2022/01/03 11:27:59;;;;;;;25.30;2.85;;;13.30;99.90;;;;;;5025625;28;20426;-66
2022/01/03 11:30:25;;;;;;;24.98;2.90;;;13.30;99.90;;;;;;5025301;28;20503;-66
2022/01/03 11:32:51;;;;;;;17.42;2.40;;;13.20;99.90;;;;;;5025363;28;20034;-66
2022/01/03 11:35:17;;;;;;;26.02;3.60;;;13.30;99.90;;;;;;5025600;28;20103;-66
2022/01/03 11:37:48;;;;;;;21.67;4.00;;;13.20;99.90;;;;;;5029841;28;20068;-66
2022/01/03 11:40:16;;;;;;;23.85;2.55;;;13.30;99.90;;;;;;5026651;28;20036;-66
2022/01/03 11:42:46;;;;;;;23.73;3.25;;;13.30;99.90;;;;;;5025275;28;20025;-66
2022/01/03 11:45:12;;;;;;;23.55;2.75;;;13.40;99.90;;;;;;5024926;28;20022;-66
2022/01/03 11:47:39;;;;;;;21.13;2.60;;;13.40;99.90;;;;;;5025614;28;20090;-66
2022/01/03 11:50:08;;;;;;;19.90;2.53;;;13.40;99.90;;;;;;5026041;28;20031;-66
2022/01/03 11:52:42;;;;;;;22.75;2.28;;;13.40;99.90;;;;;;5028451;28;20029;-66
2022/01/03 11:55:11;;;;;;;18.58;2.30;;;13.40;99.90;;;;;;5025610;28;20100;-67
2022/01/03 12:03:41;;;;;;;18.70;2.40;;;13.50;99.90;;;;;;5027167;28;20036;-67
2022/01/03 12:06:09;;;;;;;18.95;2.55;;;13.50;99.90;;;;;;5024749;28;20040;-66
2022/01/03 12:08:37;;;;;;;15.88;2.28;;;13.50;99.90;;;;;;5027180;28;20388;-66
2022/01/03 12:11:24;;;;;;;15.23;1.90;;;13.50;99.90;;;;;;5026434;28;20033;-67
2022/01/03 12:13:56;;;;;;;14.00;1.75;;;13.50;99.90;;;;;;5023845;28;20116;-65
2022/01/03 12:16:56;;;;;;;14.43;1.95;;;13.50;99.90;;;;;;5028031;28;20029;-65
2022/01/03 12:19:32;;;;;;;16.00;2.00;;;13.50;99.90;;;;;;5021035;28;20053;-65
2022/01/03 12:22:21;;;;;;;12.45;1.85;;;13.50;99.90;;;;;;5024981;28;20078;-65
2022/01/03 12:24:56;;;;;;;13.52;2.53;;;13.60;99.90;;;;;;5021346;28;20048;-65
2022/01/03 12:27:25;;;;;;;12.77;1.88;;;13.50;99.90;;;;;;5026348;28;20055;-65
2022/01/03 12:29:57;;;;;;;11.48;1.67;;;13.50;99.90;;;;;;5023459;28;20025;-65
2022/01/03 12:32:37;;;;;;;11.95;1.40;;;13.40;99.90;;;;;;5024221;28;20521;-65
2022/01/03 12:35:20;;;;;;;10.63;1.50;;;13.30;99.90;;;;;;5030251;28;20083;-66
2022/01/03 12:37:54;;;;;;;13.27;1.50;;;13.30;99.90;;;;;;5039688;28;20045;-65
2022/01/03 12:40:28;;;;;;;7.93;1.42;;;13.20;99.90;;;;;;5027475;28;20029;-65
2022/01/03 12:42:57;;;;;;;11.43;1.75;;;13.20;99.90;;;;;;5025614;28;20037;-66
2022/01/03 12:45:35;;;;;;;10.38;1.83;;;13.10;99.90;;;;;;5024095;28;20049;-67
2022/01/03 12:48:15;;;;;;;6.78;1.02;;;13.10;99.90;;;;;;5024077;28;20485;-66
2022/01/03 12:50:46;;;;;;;9.90;1.30;;;13.00;99.90;;;;;;5024664;28;20075;-67
2022/01/03 12:53:32;;;;;;;9.85;1.50;;;13.00;99.90;;;;;;5024983;28;20164;-66
2022/01/03 12:56:01;;;;;;;10.60;1.70;;;13.00;99.90;;;;;;5023837;28;20022;-66
2022/01/03 12:58:26;;;;;;;6.18;1.38;;;12.90;99.90;;;;;;5025419;28;20029;-67
2022/01/03 13:01:06;;;;;;;10.20;1.40;;;12.80;99.90;;;;;;5026302;28;20041;-66
2022/01/03 13:03:47;;;;;;;5.28;1.13;;;12.70;99.90;;;;;;5025992;28;20068;-66
2022/01/03 13:06:27;;;;;;;6.88;1.17;;;12.80;99.90;;;;;;5030224;28;20052;-66
2022/01/03 13:08:55;;;;;;;17.95;5.53;;;12.80;99.90;;;;;;5027657;28;20037;-66
2022/01/03 13:11:30;;;;;;;8.02;1.60;;;12.80;99.90;;;;;;5031245;28;20144;-67
2022/01/03 13:14:01;;;;;;;5.45;1.20;;;12.80;99.90;;;;;;5030120;28;20032;-66